Terminal Aerodrome Forecast
Issued by NWS Sterling, VA

Current Version | Previous Version | Text Only | Print | Product List | Glossary Off
Versions: 1 2 3 4 5 6 7 8 9 10 11 12 13 14 15 16 17 18 19 20 21 22

000
FTUS41 KLWX 250908 AAA
TAFIAD
TAF AMD
KIAD 250908Z 2509/2612 17008KT P6SM FEW015 BKN050
     FM251000 17008KT P6SM BKN015
     FM251500 20012G20KT P6SM BKN040
     FM251700 20013G22KT 5SM -SHRA VCTS BKN035CB
     FM252000 28017G29KT P6SM OVC050
     FM260400 30016G24KT P6SM SCT040=

USA.gov is the U.S. government's official web portal to all federal, state and local government web resources and services.